Time;durP1;ratioP1;P1;durP2;ratioP2;P2;SDS_P1;SDS_P2;PMS_P1;PMS_P2;Temp;Humidity;BMP_temperature;BMP_pressure;BME280_temperature;BME280_humidity;BME280_pressure;Samples;Min_cycle;Max_cycle;Signal;HPM_P1;HPM_P2
2022/12/28 14:58:20;;;;;;;4.70;2.60;;;;;;;;;;175332;27;10002279;-78
2022/12/28 14:58:52;;;;;;;5.97;3.13;;;;;;;;;;526249;27;1762;-76
2022/12/28 14:59:22;;;;;;;6.95;3.00;;;;;;;;;;527982;28;1280;-78
2022/12/28 14:59:42;;;;;;;7.10;3.08;;;;;;;;;;525205;28;1398;-78
2022/12/28 15:00:02;;;;;;;7.28;2.90;;;;;;;;;;525483;28;1554;-78
2022/12/28 15:00:25;;;;;;;6.18;3.00;;;;;;;;;;523770;28;1459;-77
2022/12/28 15:00:53;;;;;;;6.25;2.85;;;;;;;;;;520737;28;1401;-84
2022/12/28 15:01:09;;;;;;;7.18;3.05;;;;;;;;;;522613;28;1432;-76
2022/12/28 15:01:38;;;;;;;7.73;3.03;;;;;;;;;;523388;28;1316;-78
2022/12/28 15:01:54;;;;;;;5.78;2.88;;;;;;;;;;523226;28;1168;-79
2022/12/28 15:02:45;;;;;;;5.32;2.80;;;;;;;;;;524247;28;1384;-79
2022/12/28 15:03:17;;;;;;;5.95;2.67;;;;;;;;;;513235;28;1502;-77
2022/12/28 15:04:07;;;;;;;5.28;2.78;;;;;;;;;;513461;28;1355;-79
2022/12/28 15:04:40;;;;;;;5.82;2.97;;;;;;;;;;514896;28;1591;-80
2022/12/28 15:04:55;;;;;;;6.55;2.70;;;;;;;;;;513089;28;1311;-80
2022/12/28 15:05:41;;;;;;;4.70;2.67;;;;;;;;;;515405;28;1418;-80
2022/12/28 15:05:58;;;;;;;5.25;3.00;;;;;;;;;;506852;28;1352;-80
2022/12/28 15:06:13;;;;;;;6.07;3.00;;;;;;;;;;514592;28;1548;-79
2022/12/28 15:06:30;;;;;;;6.03;2.97;;;;;;;;;;515095;28;1551;-80
2022/12/28 15:06:45;;;;;;;5.65;3.00;;;;;;;;;;515923;28;1393;-80
2022/12/28 15:07:01;;;;;;;5.45;2.90;;;;;;;;;;514469;28;1276;-82
2022/12/28 15:07:16;;;;;;;6.88;2.80;;;;;;;;;;514229;28;1861;-80
2022/12/28 15:07:32;;;;;;;7.23;2.80;;;;;;;;;;516792;28;1245;-79
2022/12/28 15:07:47;;;;;;;5.47;3.00;;;;;;;;;;514801;28;1324;-80
2022/12/28 15:08:02;;;;;;;5.13;3.10;;;;;;;;;;513740;28;1447;-79
2022/12/28 15:08:18;;;;;;;4.45;2.80;;;;;;;;;;513010;28;1268;-80
2022/12/28 15:08:33;;;;;;;4.40;2.67;;;;;;;;;;516050;28;1390;-79
2022/12/28 15:08:50;;;;;;;5.13;2.87;;;;;;;;;;513268;28;1365;-80
2022/12/28 15:09:07;;;;;;;5.80;2.90;;;;;;;;;;513315;28;1356;-79
2022/12/28 15:09:22;;;;;;;5.75;2.83;;;;;;;;;;513485;28;1336;-79
2022/12/28 15:09:37;;;;;;;4.67;2.70;;;;;;;;;;512573;28;1365;-79
2022/12/28 15:09:53;;;;;;;4.40;2.60;;;;;;;;;;510257;28;1366;-79
2022/12/28 15:10:08;;;;;;;4.73;2.63;;;;;;;;;;509576;28;1350;-80
2022/12/28 15:10:23;;;;;;;5.30;2.70;;;;;;;;;;511028;28;1277;-79
2022/12/28 15:10:45;;;;;;;5.43;2.90;;;;;;;;;;512976;28;1262;-80
2022/12/28 15:11:02;;;;;;;5.03;3.10;;;;;;;;;;508039;28;1572;-80
2022/12/28 15:11:19;;;;;;;6.80;3.25;;;;;;;;;;513410;28;1506;-80
2022/12/28 15:11:34;;;;;;;8.20;3.25;;;;;;;;;;514999;28;1244;-80
2022/12/28 15:12:06;;;;;;;4.70;2.97;;;;;;;;;;512365;28;1237;-80
2022/12/28 15:12:21;;;;;;;4.03;2.70;;;;;;;;;;514979;28;1233;-80
2022/12/28 15:12:37;;;;;;;4.00;2.67;;;;;;;;;;513570;28;1378;-80
2022/12/28 15:12:52;;;;;;;5.10;2.80;;;;;;;;;;513554;28;1355;-81
2022/12/28 15:13:08;;;;;;;4.85;2.80;;;;;;;;;;512111;28;1451;-80
2022/12/28 15:13:25;;;;;;;4.67;2.80;;;;;;;;;;511565;28;1368;-80
2022/12/28 15:13:40;;;;;;;4.93;2.63;;;;;;;;;;512703;28;1763;-79
2022/12/28 15:13:56;;;;;;;5.07;2.67;;;;;;;;;;510637;28;1567;-80
2022/12/28 15:14:11;;;;;;;4.75;2.67;;;;;;;;;;514035;28;1546;-79
2022/12/28 15:14:27;;;;;;;4.93;2.73;;;;;;;;;;514213;28;1346;-80
2022/12/28 15:14:42;;;;;;;5.30;2.70;;;;;;;;;;513620;28;1346;-80
2022/12/28 15:14:57;;;;;;;5.27;2.53;;;;;;;;;;514507;28;1336;-81
2022/12/28 15:15:13;;;;;;;5.57;2.70;;;;;;;;;;513310;28;1795;-81
2022/12/28 15:15:28;;;;;;;5.55;2.80;;;;;;;;;;514448;28;1197;-79
2022/12/28 15:15:44;;;;;;;4.73;2.63;;;;;;;;;;512768;28;1336;-79
2022/12/28 15:16:03;;;;;;;4.25;2.70;;;;;;;;;;514740;28;1417;-80
2022/12/28 15:16:21;;;;;;;4.25;2.42;;;;;;;;;;513519;28;1327;-80
2022/12/28 15:16:37;;;;;;;4.38;2.50;;;;;;;;;;513356;28;1414;-79
2022/12/28 15:16:52;;;;;;;5.03;2.78;;;;;;;;;;514474;28;1583;-80
2022/12/28 15:17:09;;;;;;;6.20;2.90;;;;;;;;;;513330;28;1252;-80
2022/12/28 15:17:24;;;;;;;6.07;2.72;;;;;;;;;;509834;28;1418;-80
2022/12/28 15:17:39;;;;;;;5.30;2.50;;;;;;;;;;511087;28;1225;-79
2022/12/28 15:17:55;;;;;;;4.70;2.50;;;;;;;;;;509991;28;1385;-79
2022/12/28 15:18:10;;;;;;;5.00;2.60;;;;;;;;;;509142;28;1944;-81
2022/12/28 15:18:27;;;;;;;4.60;2.60;;;;;;;;;;509716;28;1848;-81
2022/12/28 15:18:43;;;;;;;4.05;2.63;;;;;;;;;;508625;28;1468;-80
2022/12/28 15:18:59;;;;;;;3.78;2.72;;;;;;;;;;508416;28;1415;-81
2022/12/28 15:19:14;;;;;;;4.13;2.70;;;;;;;;;;510882;28;1365;-83
2022/12/28 15:19:29;;;;;;;5.25;2.80;;;;;;;;;;510654;28;1505;-82
2022/12/28 15:19:45;;;;;;;4.80;2.87;;;;;;;;;;510798;28;1350;-82
2022/12/28 15:20:00;;;;;;;4.33;2.70;;;;;;;;;;513071;28;1215;-79
2022/12/28 15:20:16;;;;;;;4.05;2.60;;;;;;;;;;516396;28;1467;-79
2022/12/28 15:20:33;;;;;;;4.38;2.65;;;;;;;;;;514285;28;1389;-79
2022/12/28 15:20:49;;;;;;;5.18;2.70;;;;;;;;;;513254;28;1423;-79
2022/12/28 15:21:04;;;;;;;5.33;2.53;;;;;;;;;;513351;28;1349;-79
2022/12/28 15:21:22;;;;;;;5.82;2.55;;;;;;;;;;516573;28;1358;-84
2022/12/28 15:21:37;;;;;;;6.20;2.70;;;;;;;;;;517542;28;1795;-83
2022/12/28 15:21:52;;;;;;;4.75;2.70;;;;;;;;;;515847;28;1370;-83
2022/12/28 15:22:08;;;;;;;5.50;2.60;;;;;;;;;;512768;28;1531;-80
2022/12/28 15:22:23;;;;;;;7.03;2.63;;;;;;;;;;512694;28;1254;-82
2022/12/28 15:22:39;;;;;;;8.00;2.80;;;;;;;;;;513713;28;1194;-81
2022/12/28 15:22:54;;;;;;;7.13;2.97;;;;;;;;;;512738;28;1367;-80
2022/12/28 15:23:10;;;;;;;6.38;2.80;;;;;;;;;;515547;28;1341;-81
2022/12/28 15:23:25;;;;;;;6.03;2.80;;;;;;;;;;516904;28;2070;-80
2022/12/28 15:23:40;;;;;;;5.60;2.87;;;;;;;;;;514138;28;1197;-79
2022/12/28 15:23:56;;;;;;;5.82;2.65;;;;;;;;;;512456;28;1220;-80
2022/12/28 15:24:11;;;;;;;5.57;2.70;;;;;;;;;;511207;28;1639;-81
2022/12/28 15:24:27;;;;;;;5.00;2.80;;;;;;;;;;511224;28;1508;-80
2022/12/28 15:24:44;;;;;;;4.53;2.70;;;;;;;;;;511971;28;1340;-78
2022/12/28 15:24:59;;;;;;;5.43;2.83;;;;;;;;;;508562;29;1315;-80
2022/12/28 15:25:14;;;;;;;5.67;3.13;;;;;;;;;;510423;28;1357;-81
2022/12/28 15:25:32;;;;;;;6.50;3.00;;;;;;;;;;512466;28;1341;-81
2022/12/28 15:25:48;;;;;;;4.72;2.60;;;;;;;;;;514894;28;1704;-81
2022/12/28 15:26:08;;;;;;;4.50;2.60;;;;;;;;;;513863;28;1579;-77
2022/12/28 15:26:23;;;;;;;5.15;3.03;;;;;;;;;;514100;28;1884;-82
2022/12/28 15:26:39;;;;;;;5.35;3.00;;;;;;;;;;512033;28;1728;-79
2022/12/28 15:26:54;;;;;;;4.77;2.73;;;;;;;;;;508685;28;1613;-85
2022/12/28 15:27:09;;;;;;;5.23;2.70;;;;;;;;;;513613;28;1204;-81
2022/12/28 15:27:25;;;;;;;7.80;2.90;;;;;;;;;;511894;28;1733;-77
